sensor_id;sensor_type;location;lat;lon;timestamp;temperature;humidity
7192;DHT22;3637;51.494;11.958;2023-01-28T00:02:11;3.30;99.90
7192;DHT22;3637;51.494;11.958;2023-01-28T00:05:13;3.20;99.90
7192;DHT22;3637;51.494;11.958;2023-01-28T00:08:15;3.20;99.90
7192;DHT22;3637;51.494;11.958;2023-01-28T00:11:17;3.10;99.90
7192;DHT22;3637;51.494;11.958;2023-01-28T00:14:19;3.10;99.90
7192;DHT22;3637;51.494;11.958;2023-01-28T00:17:22;3.10;99.90
7192;DHT22;3637;51.494;11.958;2023-01-28T00:20:24;3.00;99.90
7192;DHT22;3637;51.494;11.958;2023-01-28T00:23:27;3.00;99.90
7192;DHT22;3637;51.494;11.958;2023-01-28T00:26:29;2.90;99.90
7192;DHT22;3637;51.494;11.958;2023-01-28T00:29:31;2.80;99.90
7192;DHT22;3637;51.494;11.958;2023-01-28T00:32:34;2.70;99.90
7192;DHT22;3637;51.494;11.958;2023-01-28T00:35:36;2.70;99.90
7192;DHT22;3637;51.494;11.958;2023-01-28T00:38:38;2.70;99.90
7192;DHT22;3637;51.494;11.958;2023-01-28T00:41:41;2.50;99.90
7192;DHT22;3637;51.494;11.958;2023-01-28T00:44:44;2.40;99.90
7192;DHT22;3637;51.494;11.958;2023-01-28T00:47:47;2.30;99.90
7192;DHT22;3637;51.494;11.958;2023-01-28T00:50:49;2.40;99.90
7192;DHT22;3637;51.494;11.958;2023-01-28T00:53:50;2.30;99.90
7192;DHT22;3637;51.494;11.958;2023-01-28T00:56:53;2.30;99.90
7192;DHT22;3637;51.494;11.958;2023-01-28T00:59:55;2.30;99.90
7192;DHT22;3637;51.494;11.958;2023-01-28T01:02:58;2.30;99.90
7192;DHT22;3637;51.494;11.958;2023-01-28T01:06:00;2.20;99.90
7192;DHT22;3637;51.494;11.958;2023-01-28T01:09:04;2.20;99.90
7192;DHT22;3637;51.494;11.958;2023-01-28T01:12:06;2.10;99.90
7192;DHT22;3637;51.494;11.958;2023-01-28T01:15:09;2.10;99.90
7192;DHT22;3637;51.494;11.958;2023-01-28T01:18:12;2.10;99.90
7192;DHT22;3637;51.494;11.958;2023-01-28T01:21:16;2.10;99.90
7192;DHT22;3637;51.494;11.958;2023-01-28T01:24:18;2.10;99.90
7192;DHT22;3637;51.494;11.958;2023-01-28T01:27:20;2.10;99.90
7192;DHT22;3637;51.494;11.958;2023-01-28T01:30:22;1.90;99.90
7192;DHT22;3637;51.494;11.958;2023-01-28T01:33:27;2.00;99.90
7192;DHT22;3637;51.494;11.958;2023-01-28T01:36:29;2.20;99.90
7192;DHT22;3637;51.494;11.958;2023-01-28T01:39:31;2.10;99.90
7192;DHT22;3637;51.494;11.958;2023-01-28T01:42:33;2.10;99.90
7192;DHT22;3637;51.494;11.958;2023-01-28T01:45:35;2.60;99.90
7192;DHT22;3637;51.494;11.958;2023-01-28T01:48:38;2.20;99.90
7192;DHT22;3637;51.494;11.958;2023-01-28T01:51:40;2.20;99.90
7192;DHT22;3637;51.494;11.958;2023-01-28T01:54:47;2.20;99.90
7192;DHT22;3637;51.494;11.958;2023-01-28T01:57:51;2.60;99.90
7192;DHT22;3637;51.494;11.958;2023-01-28T02:00:56;2.20;99.90
7192;DHT22;3637;51.494;11.958;2023-01-28T02:04:05;2.20;99.90
7192;DHT22;3637;51.494;11.958;2023-01-28T02:07:11;2.60;99.90
7192;DHT22;3637;51.494;11.958;2023-01-28T02:10:13;2.30;99.90
7192;DHT22;3637;51.494;11.958;2023-01-28T02:13:17;2.60;99.90
7192;DHT22;3637;51.494;11.958;2023-01-28T02:16:20;2.40;99.90
7192;DHT22;3637;51.494;11.958;2023-01-28T02:19:28;2.40;99.90
7192;DHT22;3637;51.494;11.958;2023-01-28T02:26:14;2.40;99.90
7192;DHT22;3637;51.494;11.958;2023-01-28T02:29:24;2.30;99.90
7192;DHT22;3637;51.494;11.958;2023-01-28T02:32:36;2.30;99.90
7192;DHT22;3637;51.494;11.958;2023-01-28T02:35:46;2.30;99.90
7192;DHT22;3637;51.494;11.958;2023-01-28T02:38:49;2.20;99.90
7192;DHT22;3637;51.494;11.958;2023-01-28T02:41:57;2.30;99.90
7192;DHT22;3637;51.494;11.958;2023-01-28T02:45:02;2.20;99.90
7192;DHT22;3637;51.494;11.958;2023-01-28T02:48:04;2.20;99.90
7192;DHT22;3637;51.494;11.958;2023-01-28T02:51:11;2.20;99.90
7192;DHT22;3637;51.494;11.958;2023-01-28T02:54:21;2.20;99.90
7192;DHT22;3637;51.494;11.958;2023-01-28T02:57:33;2.90;99.90
7192;DHT22;3637;51.494;11.958;2023-01-28T03:00:45;2.10;99.90
7192;DHT22;3637;51.494;11.958;2023-01-28T03:03:57;2.20;99.90
7192;DHT22;3637;51.494;11.958;2023-01-28T03:07:02;2.20;99.90
7192;DHT22;3637;51.494;11.958;2023-01-28T03:10:09;2.20;99.90
7192;DHT22;3637;51.494;11.958;2023-01-28T03:13:13;1.90;99.90
7192;DHT22;3637;51.494;11.958;2023-01-28T03:16:34;1.90;99.90
7192;DHT22;3637;51.494;11.958;2023-01-28T03:19:53;1.70;99.90
7192;DHT22;3637;51.494;11.958;2023-01-28T03:23:17;1.80;99.90
7192;DHT22;3637;51.494;11.958;2023-01-28T03:26:44;1.80;99.90
7192;DHT22;3637;51.494;11.958;2023-01-28T03:30:10;2.00;99.90
7192;DHT22;3637;51.494;11.958;2023-01-28T03:33:33;1.80;99.90
7192;DHT22;3637;51.494;11.958;2023-01-28T03:36:54;1.90;99.90
7192;DHT22;3637;51.494;11.958;2023-01-28T03:40:01;1.90;99.90
7192;DHT22;3637;51.494;11.958;2023-01-28T03:43:04;1.80;99.90
7192;DHT22;3637;51.494;11.958;2023-01-28T03:46:05;1.90;99.90
7192;DHT22;3637;51.494;11.958;2023-01-28T03:49:11;1.80;99.90
7192;DHT22;3637;51.494;11.958;2023-01-28T03:52:13;1.80;99.90
7192;DHT22;3637;51.494;11.958;2023-01-28T03:55:15;1.80;99.90
7192;DHT22;3637;51.494;11.958;2023-01-28T03:58:18;1.80;99.90
7192;DHT22;3637;51.494;11.958;2023-01-28T04:01:20;1.80;99.90
7192;DHT22;3637;51.494;11.958;2023-01-28T04:04:23;1.90;99.90
7192;DHT22;3637;51.494;11.958;2023-01-28T04:07:26;1.90;99.90
7192;DHT22;3637;51.494;11.958;2023-01-28T04:10:30;2.20;99.90
7192;DHT22;3637;51.494;11.958;2023-01-28T04:13:32;2.00;99.90
7192;DHT22;3637;51.494;11.958;2023-01-28T04:16:34;2.00;99.90
7192;DHT22;3637;51.494;11.958;2023-01-28T04:19:37;2.00;99.90
7192;DHT22;3637;51.494;11.958;2023-01-28T04:22:40;2.00;99.90
7192;DHT22;3637;51.494;11.958;2023-01-28T04:25:41;2.00;99.90
7192;DHT22;3637;51.494;11.958;2023-01-28T04:28:43;1.90;99.90
7192;DHT22;3637;51.494;11.958;2023-01-28T04:31:45;1.80;99.90
7192;DHT22;3637;51.494;11.958;2023-01-28T04:34:48;1.90;99.90
7192;DHT22;3637;51.494;11.958;2023-01-28T04:37:51;1.90;99.90
7192;DHT22;3637;51.494;11.958;2023-01-28T04:40:53;1.90;99.90
7192;DHT22;3637;51.494;11.958;2023-01-28T04:43:55;1.90;99.90
7192;DHT22;3637;51.494;11.958;2023-01-28T04:46:57;2.00;99.90
7192;DHT22;3637;51.494;11.958;2023-01-28T04:50:00;2.00;99.90
7192;DHT22;3637;51.494;11.958;2023-01-28T04:53:01;2.20;99.90
7192;DHT22;3637;51.494;11.958;2023-01-28T04:56:03;2.00;99.90
7192;DHT22;3637;51.494;11.958;2023-01-28T04:59:05;2.00;99.90
7192;DHT22;3637;51.494;11.958;2023-01-28T05:02:07;2.00;99.90
7192;DHT22;3637;51.494;11.958;2023-01-28T05:05:10;2.00;99.90
7192;DHT22;3637;51.494;11.958;2023-01-28T05:08:12;2.00;99.90
7192;DHT22;3637;51.494;11.958;2023-01-28T05:11:14;2.00;99.90
7192;DHT22;3637;51.494;11.958;2023-01-28T05:14:16;2.00;99.90
7192;DHT22;3637;51.494;11.958;2023-01-28T05:17:18;1.90;99.90
7192;DHT22;3637;51.494;11.958;2023-01-28T05:20:21;1.90;99.90
7192;DHT22;3637;51.494;11.958;2023-01-28T05:23:23;2.00;99.90
7192;DHT22;3637;51.494;11.958;2023-01-28T05:26:25;1.90;99.90
7192;DHT22;3637;51.494;11.958;2023-01-28T05:29:29;2.20;99.90
7192;DHT22;3637;51.494;11.958;2023-01-28T05:32:30;2.00;99.90
7192;DHT22;3637;51.494;11.958;2023-01-28T05:35:33;2.00;99.90
7192;DHT22;3637;51.494;11.958;2023-01-28T05:38:36;1.90;99.90
7192;DHT22;3637;51.494;11.958;2023-01-28T05:41:37;2.00;99.90
7192;DHT22;3637;51.494;11.958;2023-01-28T05:44:39;2.00;99.90
7192;DHT22;3637;51.494;11.958;2023-01-28T05:47:41;1.90;99.90
7192;DHT22;3637;51.494;11.958;2023-01-28T05:50:45;1.90;99.90
7192;DHT22;3637;51.494;11.958;2023-01-28T05:53:47;2.00;99.90
7192;DHT22;3637;51.494;11.958;2023-01-28T05:56:49;2.00;99.90
7192;DHT22;3637;51.494;11.958;2023-01-28T05:59:50;2.00;99.90
7192;DHT22;3637;51.494;11.958;2023-01-28T06:03:06;2.00;99.90
7192;DHT22;3637;51.494;11.958;2023-01-28T06:06:19;1.90;99.90
7192;DHT22;3637;51.494;11.958;2023-01-28T06:09:20;2.00;99.90
7192;DHT22;3637;51.494;11.958;2023-01-28T06:12:22;2.00;99.90
7192;DHT22;3637;51.494;11.958;2023-01-28T06:15:24;2.00;99.90
7192;DHT22;3637;51.494;11.958;2023-01-28T06:18:27;2.00;99.90
7192;DHT22;3637;51.494;11.958;2023-01-28T06:21:30;2.10;99.90
7192;DHT22;3637;51.494;11.958;2023-01-28T06:24:32;2.10;99.90
7192;DHT22;3637;51.494;11.958;2023-01-28T06:27:34;2.20;99.90
7192;DHT22;3637;51.494;11.958;2023-01-28T06:30:36;2.20;99.90
7192;DHT22;3637;51.494;11.958;2023-01-28T06:33:38;2.10;99.90
7192;DHT22;3637;51.494;11.958;2023-01-28T06:36:41;2.00;99.90
7192;DHT22;3637;51.494;11.958;2023-01-28T06:39:43;2.10;99.90
7192;DHT22;3637;51.494;11.958;2023-01-28T06:42:45;2.10;99.90
7192;DHT22;3637;51.494;11.958;2023-01-28T06:45:46;2.10;99.90
7192;DHT22;3637;51.494;11.958;2023-01-28T06:48:48;2.10;99.90
7192;DHT22;3637;51.494;11.958;2023-01-28T06:51:51;2.00;99.90
7192;DHT22;3637;51.494;11.958;2023-01-28T06:54:53;2.10;99.90
7192;DHT22;3637;51.494;11.958;2023-01-28T06:57:55;2.10;99.90
7192;DHT22;3637;51.494;11.958;2023-01-28T07:00:57;2.10;99.90
7192;DHT22;3637;51.494;11.958;2023-01-28T07:03:58;2.00;99.90
7192;DHT22;3637;51.494;11.958;2023-01-28T07:07:02;2.00;99.90
7192;DHT22;3637;51.494;11.958;2023-01-28T07:10:04;1.90;99.90
7192;DHT22;3637;51.494;11.958;2023-01-28T07:13:06;2.00;99.90
7192;DHT22;3637;51.494;11.958;2023-01-28T07:16:08;2.00;99.90
7192;DHT22;3637;51.494;11.958;2023-01-28T07:19:10;2.10;99.90
7192;DHT22;3637;51.494;11.958;2023-01-28T07:22:13;2.10;99.90
7192;DHT22;3637;51.494;11.958;2023-01-28T07:25:15;2.20;99.90
7192;DHT22;3637;51.494;11.958;2023-01-28T07:28:17;2.20;99.90
7192;DHT22;3637;51.494;11.958;2023-01-28T07:31:21;2.20;99.90
7192;DHT22;3637;51.494;11.958;2023-01-28T07:34:23;2.20;99.90
7192;DHT22;3637;51.494;11.958;2023-01-28T07:37:26;2.30;99.90
7192;DHT22;3637;51.494;11.958;2023-01-28T07:40:28;2.30;99.90
7192;DHT22;3637;51.494;11.958;2023-01-28T07:43:30;2.30;99.90
7192;DHT22;3637;51.494;11.958;2023-01-28T07:46:32;2.30;99.90
7192;DHT22;3637;51.494;11.958;2023-01-28T07:49:33;2.20;99.90
7192;DHT22;3637;51.494;11.958;2023-01-28T07:52:37;2.30;99.90
7192;DHT22;3637;51.494;11.958;2023-01-28T07:55:43;2.20;99.90
7192;DHT22;3637;51.494;11.958;2023-01-28T07:58:48;2.30;99.90
7192;DHT22;3637;51.494;11.958;2023-01-28T08:01:50;2.30;99.90
7192;DHT22;3637;51.494;11.958;2023-01-28T08:04:53;2.30;99.90
7192;DHT22;3637;51.494;11.958;2023-01-28T08:07:59;3.00;99.90
7192;DHT22;3637;51.494;11.958;2023-01-28T08:11:06;2.30;99.90
7192;DHT22;3637;51.494;11.958;2023-01-28T08:14:09;2.30;99.90
7192;DHT22;3637;51.494;11.958;2023-01-28T08:17:11;2.30;99.90
7192;DHT22;3637;51.494;11.958;2023-01-28T08:20:13;2.30;99.90
7192;DHT22;3637;51.494;11.958;2023-01-28T08:23:17;2.40;99.90
7192;DHT22;3637;51.494;11.958;2023-01-28T08:26:19;2.40;99.90
7192;DHT22;3637;51.494;11.958;2023-01-28T08:29:21;2.40;99.90
7192;DHT22;3637;51.494;11.958;2023-01-28T08:32:23;2.20;99.90
7192;DHT22;3637;51.494;11.958;2023-01-28T08:35:28;2.60;99.90
7192;DHT22;3637;51.494;11.958;2023-01-28T08:38:33;2.60;99.90
7192;DHT22;3637;51.494;11.958;2023-01-28T08:41:35;2.60;99.90
7192;DHT22;3637;51.494;11.958;2023-01-28T08:44:37;2.50;99.90
7192;DHT22;3637;51.494;11.958;2023-01-28T08:47:46;3.00;99.90
7192;DHT22;3637;51.494;11.958;2023-01-28T08:50:48;2.50;99.90
7192;DHT22;3637;51.494;11.958;2023-01-28T08:53:52;2.50;99.90
7192;DHT22;3637;51.494;11.958;2023-01-28T08:56:54;2.70;99.90
7192;DHT22;3637;51.494;11.958;2023-01-28T08:59:56;2.40;99.90
7192;DHT22;3637;51.494;11.958;2023-01-28T09:02:57;2.50;99.90
7192;DHT22;3637;51.494;11.958;2023-01-28T09:06:00;2.40;99.90
7192;DHT22;3637;51.494;11.958;2023-01-28T09:09:03;2.40;99.90
7192;DHT22;3637;51.494;11.958;2023-01-28T09:12:05;2.40;99.90
7192;DHT22;3637;51.494;11.958;2023-01-28T09:15:11;2.50;99.90
7192;DHT22;3637;51.494;11.958;2023-01-28T09:18:13;3.00;99.90
7192;DHT22;3637;51.494;11.958;2023-01-28T09:21:14;2.60;99.90
7192;DHT22;3637;51.494;11.958;2023-01-28T09:24:18;3.20;99.90
7192;DHT22;3637;51.494;11.958;2023-01-28T09:27:20;2.80;99.90
7192;DHT22;3637;51.494;11.958;2023-01-28T09:30:22;2.80;99.90
7192;DHT22;3637;51.494;11.958;2023-01-28T09:33:23;3.10;99.90
7192;DHT22;3637;51.494;11.958;2023-01-28T09:36:25;2.70;99.90
7192;DHT22;3637;51.494;11.958;2023-01-28T09:39:28;2.70;99.90
7192;DHT22;3637;51.494;11.958;2023-01-28T09:42:41;2.70;99.90
7192;DHT22;3637;51.494;11.958;2023-01-28T09:45:49;2.60;99.90
7192;DHT22;3637;51.494;11.958;2023-01-28T09:48:52;2.50;99.90
7192;DHT22;3637;51.494;11.958;2023-01-28T09:51:54;2.50;99.90
7192;DHT22;3637;51.494;11.958;2023-01-28T09:55:02;2.60;99.90
7192;DHT22;3637;51.494;11.958;2023-01-28T09:58:05;2.60;99.90
7192;DHT22;3637;51.494;11.958;2023-01-28T10:01:30;2.70;99.90
7192;DHT22;3637;51.494;11.958;2023-01-28T10:04:44;2.70;99.90
7192;DHT22;3637;51.494;11.958;2023-01-28T10:07:56;2.80;99.90
7192;DHT22;3637;51.494;11.958;2023-01-28T10:11:05;2.80;99.90
7192;DHT22;3637;51.494;11.958;2023-01-28T10:14:19;2.80;99.90
7192;DHT22;3637;51.494;11.958;2023-01-28T10:17:29;2.90;99.90
7192;DHT22;3637;51.494;11.958;2023-01-28T10:20:36;2.90;99.90
7192;DHT22;3637;51.494;11.958;2023-01-28T10:23:45;2.90;99.90
7192;DHT22;3637;51.494;11.958;2023-01-28T10:26:52;3.40;99.90
7192;DHT22;3637;51.494;11.958;2023-01-28T10:29:54;2.90;99.90
7192;DHT22;3637;51.494;11.958;2023-01-28T10:33:00;3.70;99.90
7192;DHT22;3637;51.494;11.958;2023-01-28T10:36:04;3.00;99.90
7192;DHT22;3637;51.494;11.958;2023-01-28T10:39:08;2.90;99.90
7192;DHT22;3637;51.494;11.958;2023-01-28T10:42:25;3.00;99.90
7192;DHT22;3637;51.494;11.958;2023-01-28T10:45:34;3.00;99.90
7192;DHT22;3637;51.494;11.958;2023-01-28T10:48:41;2.90;99.90
7192;DHT22;3637;51.494;11.958;2023-01-28T10:51:45;3.00;99.90
7192;DHT22;3637;51.494;11.958;2023-01-28T10:54:58;3.10;99.90
7192;DHT22;3637;51.494;11.958;2023-01-28T10:58:02;3.10;99.90
7192;DHT22;3637;51.494;11.958;2023-01-28T11:01:06;3.20;99.90
7192;DHT22;3637;51.494;11.958;2023-01-28T11:07:19;3.20;99.90
7192;DHT22;3637;51.494;11.958;2023-01-28T11:10:25;3.20;99.90
7192;DHT22;3637;51.494;11.958;2023-01-28T11:13:29;3.10;99.90
7192;DHT22;3637;51.494;11.958;2023-01-28T11:16:31;3.10;99.90
7192;DHT22;3637;51.494;11.958;2023-01-28T11:19:34;2.90;99.90
7192;DHT22;3637;51.494;11.958;2023-01-28T11:22:38;2.70;99.90
7192;DHT22;3637;51.494;11.958;2023-01-28T11:25:41;2.70;99.90
7192;DHT22;3637;51.494;11.958;2023-01-28T11:28:45;2.70;99.90
7192;DHT22;3637;51.494;11.958;2023-01-28T11:31:47;2.70;99.90
7192;DHT22;3637;51.494;11.958;2023-01-28T11:34:51;2.70;99.90
7192;DHT22;3637;51.494;11.958;2023-01-28T11:37:53;2.70;99.90
7192;DHT22;3637;51.494;11.958;2023-01-28T11:40:57;2.80;99.90
7192;DHT22;3637;51.494;11.958;2023-01-28T11:44:12;2.80;99.90
7192;DHT22;3637;51.494;11.958;2023-01-28T11:47:29;2.80;99.90
7192;DHT22;3637;51.494;11.958;2023-01-28T11:50:40;2.90;99.90
7192;DHT22;3637;51.494;11.958;2023-01-28T11:53:55;2.80;99.90
7192;DHT22;3637;51.494;11.958;2023-01-28T11:57:12;2.60;99.90
7192;DHT22;3637;51.494;11.958;2023-01-28T12:00:27;2.50;99.90
7192;DHT22;3637;51.494;11.958;2023-01-28T12:03:42;2.30;99.90
7192;DHT22;3637;51.494;11.958;2023-01-28T12:07:00;2.30;99.90
7192;DHT22;3637;51.494;11.958;2023-01-28T12:10:09;2.40;99.90
7192;DHT22;3637;51.494;11.958;2023-01-28T12:13:29;2.50;99.90
7192;DHT22;3637;51.494;11.958;2023-01-28T12:16:46;2.50;99.90
7192;DHT22;3637;51.494;11.958;2023-01-28T12:20:00;2.60;98.10
7192;DHT22;3637;51.494;11.958;2023-01-28T12:23:22;3.20;98.00
7192;DHT22;3637;51.494;11.958;2023-01-28T12:26:34;2.70;98.30
7192;DHT22;3637;51.494;11.958;2023-01-28T12:29:49;2.70;98.40
7192;DHT22;3637;51.494;11.958;2023-01-28T12:33:13;3.40;98.70
7192;DHT22;3637;51.494;11.958;2023-01-28T12:36:34;2.80;98.20
7192;DHT22;3637;51.494;11.958;2023-01-28T12:39:48;2.90;98.70
7192;DHT22;3637;51.494;11.958;2023-01-28T12:42:55;2.90;98.90
7192;DHT22;3637;51.494;11.958;2023-01-28T12:46:02;3.00;99.10
7192;DHT22;3637;51.494;11.958;2023-01-28T12:49:11;3.10;99.00
7192;DHT22;3637;51.494;11.958;2023-01-28T12:52:16;3.40;99.50
7192;DHT22;3637;51.494;11.958;2023-01-28T12:55:24;3.20;99.00
7192;DHT22;3637;51.494;11.958;2023-01-28T12:58:36;3.00;98.20
7192;DHT22;3637;51.494;11.958;2023-01-28T13:01:43;2.70;99.00
7192;DHT22;3637;51.494;11.958;2023-01-28T13:04:52;2.70;99.70
7192;DHT22;3637;51.494;11.958;2023-01-28T13:07:58;2.80;99.80
7192;DHT22;3637;51.494;11.958;2023-01-28T13:11:04;2.60;98.80
7192;DHT22;3637;51.494;11.958;2023-01-28T13:14:11;2.50;99.00
7192;DHT22;3637;51.494;11.958;2023-01-28T13:17:25;2.40;99.50
7192;DHT22;3637;51.494;11.958;2023-01-28T13:20:36;2.50;99.80
7192;DHT22;3637;51.494;11.958;2023-01-28T13:23:40;2.60;99.20
7192;DHT22;3637;51.494;11.958;2023-01-28T13:26:44;2.50;99.40
7192;DHT22;3637;51.494;11.958;2023-01-28T13:29:47;2.50;98.40
7192;DHT22;3637;51.494;11.958;2023-01-28T13:32:58;2.90;98.80
7192;DHT22;3637;51.494;11.958;2023-01-28T13:36:21;2.50;98.70
7192;DHT22;3637;51.494;11.958;2023-01-28T13:39:26;2.50;98.90
7192;DHT22;3637;51.494;11.958;2023-01-28T13:42:29;2.50;98.80
7192;DHT22;3637;51.494;11.958;2023-01-28T13:45:31;2.40;98.80
7192;DHT22;3637;51.494;11.958;2023-01-28T13:48:39;2.40;98.90
7192;DHT22;3637;51.494;11.958;2023-01-28T13:51:55;2.30;99.10
7192;DHT22;3637;51.494;11.958;2023-01-28T13:55:02;3.50;99.30
7192;DHT22;3637;51.494;11.958;2023-01-28T13:58:28;2.30;98.60
7192;DHT22;3637;51.494;11.958;2023-01-28T14:02:06;2.10;99.20
7192;DHT22;3637;51.494;11.958;2023-01-28T14:05:44;2.00;99.40
7192;DHT22;3637;51.494;11.958;2023-01-28T14:09:15;2.10;99.00
7192;DHT22;3637;51.494;11.958;2023-01-28T14:12:41;2.30;99.00
7192;DHT22;3637;51.494;11.958;2023-01-28T14:15:57;2.30;97.80
7192;DHT22;3637;51.494;11.958;2023-01-28T14:19:01;2.30;98.80
7192;DHT22;3637;51.494;11.958;2023-01-28T14:22:06;2.40;98.60
7192;DHT22;3637;51.494;11.958;2023-01-28T14:25:15;2.50;98.20
7192;DHT22;3637;51.494;11.958;2023-01-28T14:28:21;2.50;98.30
7192;DHT22;3637;51.494;11.958;2023-01-28T14:31:27;2.50;98.60
7192;DHT22;3637;51.494;11.958;2023-01-28T14:34:31;2.50;98.50
7192;DHT22;3637;51.494;11.958;2023-01-28T14:37:33;2.50;98.70
7192;DHT22;3637;51.494;11.958;2023-01-28T14:40:38;2.50;98.50
7192;DHT22;3637;51.494;11.958;2023-01-28T14:43:40;2.40;98.60
7192;DHT22;3637;51.494;11.958;2023-01-28T14:46:47;2.40;98.80
7192;DHT22;3637;51.494;11.958;2023-01-28T14:50:06;2.40;98.00
7192;DHT22;3637;51.494;11.958;2023-01-28T14:53:27;2.40;97.80
7192;DHT22;3637;51.494;11.958;2023-01-28T14:56:40;2.40;97.20
7192;DHT22;3637;51.494;11.958;2023-01-28T14:59:47;2.50;97.40
7192;DHT22;3637;51.494;11.958;2023-01-28T15:02:50;3.20;97.80
7192;DHT22;3637;51.494;11.958;2023-01-28T15:06:03;2.60;97.40
7192;DHT22;3637;51.494;11.958;2023-01-28T15:09:06;3.10;98.30
7192;DHT22;3637;51.494;11.958;2023-01-28T15:12:10;2.70;97.70
7192;DHT22;3637;51.494;11.958;2023-01-28T15:15:18;2.60;97.80
7192;DHT22;3637;51.494;11.958;2023-01-28T15:18:27;2.50;98.00
7192;DHT22;3637;51.494;11.958;2023-01-28T15:21:30;2.50;97.70
7192;DHT22;3637;51.494;11.958;2023-01-28T15:24:33;2.30;97.10
7192;DHT22;3637;51.494;11.958;2023-01-28T15:27:41;2.20;97.00
7192;DHT22;3637;51.494;11.958;2023-01-28T15:30:44;2.30;97.80
7192;DHT22;3637;51.494;11.958;2023-01-28T15:33:55;2.30;98.10
7192;DHT22;3637;51.494;11.958;2023-01-28T15:36:58;2.30;97.90
7192;DHT22;3637;51.494;11.958;2023-01-28T15:40:01;2.20;98.00
7192;DHT22;3637;51.494;11.958;2023-01-28T15:43:14;2.10;98.10
7192;DHT22;3637;51.494;11.958;2023-01-28T15:46:18;1.90;98.10
7192;DHT22;3637;51.494;11.958;2023-01-28T15:49:20;1.90;98.10
7192;DHT22;3637;51.494;11.958;2023-01-28T15:52:29;1.90;98.00
7192;DHT22;3637;51.494;11.958;2023-01-28T15:55:36;1.90;98.00
7192;DHT22;3637;51.494;11.958;2023-01-28T15:58:40;2.80;98.30
7192;DHT22;3637;51.494;11.958;2023-01-28T16:01:42;2.10;98.10
7192;DHT22;3637;51.494;11.958;2023-01-28T16:04:55;2.20;97.70
7192;DHT22;3637;51.494;11.958;2023-01-28T16:07:57;2.30;97.90
7192;DHT22;3637;51.494;11.958;2023-01-28T16:10:59;2.40;98.20
7192;DHT22;3637;51.494;11.958;2023-01-28T16:14:03;2.40;97.40
7192;DHT22;3637;51.494;11.958;2023-01-28T16:17:05;2.30;97.60
7192;DHT22;3637;51.494;11.958;2023-01-28T16:20:19;2.30;97.70
7192;DHT22;3637;51.494;11.958;2023-01-28T16:23:24;2.30;97.90
7192;DHT22;3637;51.494;11.958;2023-01-28T16:26:29;2.10;98.10
7192;DHT22;3637;51.494;11.958;2023-01-28T16:29:32;2.00;98.90
7192;DHT22;3637;51.494;11.958;2023-01-28T16:32:36;2.10;99.00
7192;DHT22;3637;51.494;11.958;2023-01-28T16:35:38;3.10;98.70
7192;DHT22;3637;51.494;11.958;2023-01-28T16:38:40;2.20;97.60
7192;DHT22;3637;51.494;11.958;2023-01-28T16:41:43;2.20;97.70
7192;DHT22;3637;51.494;11.958;2023-01-28T16:44:47;2.20;98.60
7192;DHT22;3637;51.494;11.958;2023-01-28T16:47:48;2.10;97.80
7192;DHT22;3637;51.494;11.958;2023-01-28T16:50:50;2.10;97.90
7192;DHT22;3637;51.494;11.958;2023-01-28T16:53:52;2.90;98.50
7192;DHT22;3637;51.494;11.958;2023-01-28T16:56:54;2.00;98.90
7192;DHT22;3637;51.494;11.958;2023-01-28T16:59:58;1.90;99.10
7192;DHT22;3637;51.494;11.958;2023-01-28T17:03:00;1.80;98.80
7192;DHT22;3637;51.494;11.958;2023-01-28T17:06:02;1.80;99.30
7192;DHT22;3637;51.494;11.958;2023-01-28T17:09:04;1.90;99.90
7192;DHT22;3637;51.494;11.958;2023-01-28T17:12:06;1.90;99.90
7192;DHT22;3637;51.494;11.958;2023-01-28T17:15:10;2.00;99.20
7192;DHT22;3637;51.494;11.958;2023-01-28T17:18:12;2.00;99.50
7192;DHT22;3637;51.494;11.958;2023-01-28T17:21:14;2.00;99.40
7192;DHT22;3637;51.494;11.958;2023-01-28T17:24:16;1.90;99.00
7192;DHT22;3637;51.494;11.958;2023-01-28T17:27:17;1.80;99.10
7192;DHT22;3637;51.494;11.958;2023-01-28T17:30:20;1.60;98.70
7192;DHT22;3637;51.494;11.958;2023-01-28T17:33:22;1.60;99.20
7192;DHT22;3637;51.494;11.958;2023-01-28T17:36:25;1.60;99.70
7192;DHT22;3637;51.494;11.958;2023-01-28T17:39:28;1.70;98.70
7192;DHT22;3637;51.494;11.958;2023-01-28T17:42:30;1.70;98.90
7192;DHT22;3637;51.494;11.958;2023-01-28T17:45:33;2.30;99.10
7192;DHT22;3637;51.494;11.958;2023-01-28T17:48:35;1.80;98.80
7192;DHT22;3637;51.494;11.958;2023-01-28T17:51:37;1.80;98.60
7192;DHT22;3637;51.494;11.958;2023-01-28T17:54:39;1.50;99.00
7192;DHT22;3637;51.494;11.958;2023-01-28T17:57:42;1.60;99.10
7192;DHT22;3637;51.494;11.958;2023-01-28T18:00:46;1.60;99.20
7192;DHT22;3637;51.494;11.958;2023-01-28T18:03:48;1.50;99.30
7192;DHT22;3637;51.494;11.958;2023-01-28T18:06:49;2.10;99.60
7192;DHT22;3637;51.494;11.958;2023-01-28T18:09:51;1.40;99.10
7192;DHT22;3637;51.494;11.958;2023-01-28T18:12:53;1.40;99.20
7192;DHT22;3637;51.494;11.958;2023-01-28T18:15:58;1.40;99.50
7192;DHT22;3637;51.494;11.958;2023-01-28T18:19:00;1.50;99.10
7192;DHT22;3637;51.494;11.958;2023-01-28T18:22:02;1.40;99.30
7192;DHT22;3637;51.494;11.958;2023-01-28T18:25:04;1.50;99.40
7192;DHT22;3637;51.494;11.958;2023-01-28T18:28:06;1.50;99.90
7192;DHT22;3637;51.494;11.958;2023-01-28T18:31:10;1.60;99.90
7192;DHT22;3637;51.494;11.958;2023-01-28T18:34:11;2.60;99.90
7192;DHT22;3637;51.494;11.958;2023-01-28T18:37:13;1.60;99.50
7192;DHT22;3637;51.494;11.958;2023-01-28T18:40:15;1.70;99.80
7192;DHT22;3637;51.494;11.958;2023-01-28T18:43:17;2.20;99.80
7192;DHT22;3637;51.494;11.958;2023-01-28T18:46:20;1.50;99.50
7192;DHT22;3637;51.494;11.958;2023-01-28T18:49:22;1.60;99.80
7192;DHT22;3637;51.494;11.958;2023-01-28T18:52:24;1.60;99.90
7192;DHT22;3637;51.494;11.958;2023-01-28T18:55:29;1.70;99.90
7192;DHT22;3637;51.494;11.958;2023-01-28T18:58:31;1.80;99.90
7192;DHT22;3637;51.494;11.958;2023-01-28T19:01:34;2.30;99.50
7192;DHT22;3637;51.494;11.958;2023-01-28T19:04:36;1.70;99.90
7192;DHT22;3637;51.494;11.958;2023-01-28T19:07:38;1.70;99.80
7192;DHT22;3637;51.494;11.958;2023-01-28T19:10:40;1.70;99.90
7192;DHT22;3637;51.494;11.958;2023-01-28T19:13:42;1.70;99.90
7192;DHT22;3637;51.494;11.958;2023-01-28T19:16:45;1.60;99.90
7192;DHT22;3637;51.494;11.958;2023-01-28T19:19:47;1.70;99.90
7192;DHT22;3637;51.494;11.958;2023-01-28T19:22:49;1.60;99.90
7192;DHT22;3637;51.494;11.958;2023-01-28T19:25:51;1.50;99.90
7192;DHT22;3637;51.494;11.958;2023-01-28T19:28:53;1.90;99.90
7192;DHT22;3637;51.494;11.958;2023-01-28T19:31:57;1.50;99.90
7192;DHT22;3637;51.494;11.958;2023-01-28T19:34:58;1.50;99.90
7192;DHT22;3637;51.494;11.958;2023-01-28T19:38:01;1.50;99.90
7192;DHT22;3637;51.494;11.958;2023-01-28T19:41:03;1.50;99.90
7192;DHT22;3637;51.494;11.958;2023-01-28T19:44:05;1.60;99.90
7192;DHT22;3637;51.494;11.958;2023-01-28T19:47:09;1.60;99.90
7192;DHT22;3637;51.494;11.958;2023-01-28T19:50:11;1.50;99.90
7192;DHT22;3637;51.494;11.958;2023-01-28T19:53:13;1.40;99.90
7192;DHT22;3637;51.494;11.958;2023-01-28T19:56:16;1.90;99.90
7192;DHT22;3637;51.494;11.958;2023-01-28T19:59:18;2.70;99.90
7192;DHT22;3637;51.494;11.958;2023-01-28T20:02:21;1.40;99.90
7192;DHT22;3637;51.494;11.958;2023-01-28T20:05:23;1.40;99.90
7192;DHT22;3637;51.494;11.958;2023-01-28T20:08:25;1.40;99.90
7192;DHT22;3637;51.494;11.958;2023-01-28T20:11:27;1.40;99.90
7192;DHT22;3637;51.494;11.958;2023-01-28T20:14:31;1.30;99.90
7192;DHT22;3637;51.494;11.958;2023-01-28T20:17:34;1.40;99.90